Notice: Undefined index: language in /storage/ssd5/933/2892933/public_html/vam/index.php on line 25
JetGo Aerolínea Virtual

www.000webhost.com
 METAR AND TAF INFORMATION
METAR FOR SKIB
ADDS - METARS form results

(1932 UTC 21 July 2019)
Data provider http://aviationweather.gov/metar/data/
 
METAR text: SKIB 211900Z 16011KT 9999 SCT030 BKN100 31/17 A2990
Conditions at: SKIB (IBAGUE/PERALES , CO) observed 1900 UTC 21 July 2019
Temperature: 31.0°C (88°F)
Dewpoint: 17.0°C (63°F) [RH = 43%]
Pressure (altimeter): 29.90 inches Hg (1012.6 mb)
Winds: from the SSE (160 degrees) at 13 MPH (11 knots; 5.7 m/s)
Visibility: 6 or more miles (10+ km)
Ceiling: 10000 feet AGL
Clouds: scattered clouds at 3000 feet AGL
broken clouds at 10000 feet AGL
Weather: no significant weather observed at this time

 AIRPORT MAP

 RUNWAY INFORMATION
Runway 14 Runway length 5905 ft Runway width 98 ft
Runway elevation 3044 ft Runway displaced threshold 0 ft Runway heading 131
Runway 32 Runway length 5905 ft Runway width 98 ft
Runway elevation 2969 ft Runway displaced threshold 0 ft Runway heading 311

 AIRPORT FREQUENCIES
Type ARR Name BOGOTA APP Frequency 119.5 MHZ
Type RDO Name IBAGUE RDO Frequency 348.8 MHZ
Type TWR Name TWR Frequency 118.3 MHZ

 AIRPORT NEAR NAVIGATION AIDS
Type VOR-DME Name Ibague Frequency 112000 KHZ
Type NDB Name Ibague Frequency 312 KHZ



Powered by VAM for JetGo Virtual Airlines